Shaw Air Force Base
KSSC : now visible

Airfield :











YOU CAN JOIN US ON...

 
LOGIN :

Register | Disclaimer

   EN    FR    IT 

 









Legend :    VFR   Marginal VFR   IFR   Intensive IFR   Very Intensive IFR
Visi :
Ceiling :
>= 8 km
>= 3000ft
5 to 8 km
1000 to 3000 ft
1500m to 5 km
500 to 1000 ft
800 to 1500m
200 to 500 ft
< 800m
< 200 ft
Symbols :   Thunderstorms  Fog  Heavy snow  Heavy precipitations  Wind > 20 kt






- Airport Elevation : 241 ft


KSSC - Shaw Air Force Base

CURRENT METAR :
  • 121747Z 04018KT 3SM -RA BR BKN007 OVC018 10/09 A3020 RMK AO2A SLP228 $

EXPIRED METARs :
  • 121656Z 04019G26KT 3SM -RA BR BKN008 OVC020 11/09 A3020 RMK AO2A PK WND 04028/44 SLP228 P0005 T01070091 $
  • 121633Z 02018KT 2SM -RA BR FEW005 BKN008 OVC015 11/10 A3020 RMK AO2A SLP228 $
  • 121556Z 03019G24KT 3SM -RA BR FEW003 OVC007 12/11 A3018 RMK AO2A PK WND 01026/38 RAB1451 SLP221 P0009 T01200107 $

TAF TAF KSSC
Valid from the 12 at 15:00 until the 13 at 21:00 UTC


121500Z 1215/1321 04012G20KT 6000 -RA BR BKN007 OVC015 QNH3010INS
TEMPO 1216/1220 04015G27KT 3200 RA BR BKN005 OVC010
BECMG 1220/1221 01010G15KT 9999 VCSH BKN015 OVC060 QNH3012INS
BECMG 1300/1301 02005KT 9999 NSW BKN035 OVC080 QNH3015INS
BECMG 1313/1314 04012G20KT 9999 SCT035 BKN080 QNH3020INS TX15/1215Z TN10/1311Z
KZJX FIR / North America



MET'MAP, your aeronautical weather chart ! - Copyright ORBIFLY December 2007 - Disclaimer

ORBIFLY MET'MAP TEAM :

Programming & Development : Alexandra Zaïnal
Concept & original design : Baudouin d'Aumeries
Assistance for programming : Marc-Olivier Méhu
Technical & hardware support : Manuel Goepfert

Contact : metmap@orbifly.com




SOURCES & CREDITS :

   NOAA       Earth
Advisory